createdAt,value
2023-02-15T00:01:50.851Z,26.33
2023-02-15T00:08:20.878Z,29.45
2023-02-15T00:14:27.011Z,32.20
2023-02-15T00:17:08.544Z,31.85
2023-02-15T00:19:49.979Z,29.15
2023-02-15T00:26:20.881Z,24.40
2023-02-15T00:35:19.418Z,27.98
2023-02-15T00:43:23.739Z,24.88
2023-02-15T00:45:51.151Z,28.55
2023-02-15T00:48:21.693Z,31.08
2023-02-15T00:50:58.724Z,29.92
2023-02-15T00:53:31.073Z,29.13
2023-02-15T00:56:08.649Z,28.60
2023-02-15T00:58:35.647Z,30.80
2023-02-15T01:01:12.182Z,30.10
2023-02-15T01:03:40.047Z,23.63
2023-02-15T01:06:07.176Z,27.35
2023-02-15T01:08:34.463Z,28.42
2023-02-15T01:11:13.774Z,31.15
2023-02-15T01:13:41.530Z,30.58
2023-02-15T01:16:09.497Z,26.48
2023-02-15T01:18:37.139Z,23.08
2023-02-15T01:21:15.586Z,25.63
2023-02-15T01:23:45.151Z,27.52
2023-02-15T01:26:15.206Z,27.15
2023-02-15T01:28:44.264Z,27.55
2023-02-15T01:31:18.709Z,31.95
2023-02-15T01:36:18.616Z,28.25
2023-02-15T01:38:46.420Z,27.05
2023-02-15T01:41:30.591Z,31.23
2023-02-15T01:44:03.812Z,29.35
2023-02-15T01:49:19.034Z,30.70
2023-02-15T01:51:55.740Z,28.17
2023-02-15T01:54:39.938Z,28.45
2023-02-15T01:57:22.134Z,33.65
2023-02-15T01:59:57.846Z,28.27
2023-02-15T02:02:28.553Z,27.25
2023-02-15T02:05:07.514Z,25.20
2023-02-15T02:07:39.709Z,29.23
2023-02-15T02:10:13.252Z,27.83
2023-02-15T02:12:43.648Z,30.10
2023-02-15T02:15:11.708Z,31.50
2023-02-15T02:17:54.497Z,31.67
2023-02-15T02:20:40.538Z,27.63
2023-02-15T02:23:16.174Z,27.63
2023-02-15T02:26:14.096Z,31.70
2023-02-15T02:29:53.417Z,33.63
2023-02-15T02:33:10.091Z,26.45
2023-02-15T02:36:17.935Z,26.02
2023-02-15T02:39:05.559Z,29.50
2023-02-15T02:42:10.767Z,30.42
2023-02-15T02:45:03.373Z,39.50
2023-02-15T02:47:45.863Z,32.15
2023-02-15T02:50:26.513Z,30.42
2023-02-15T02:52:56.166Z,27.42
2023-02-15T02:56:00.888Z,30.67
2023-02-15T02:58:43.955Z,30.55
2023-02-15T03:01:38.674Z,28.33
2023-02-15T03:04:15.081Z,31.65
2023-02-15T03:06:48.196Z,31.30
2023-02-15T03:09:42.532Z,27.75
2023-02-15T03:12:15.961Z,26.02
2023-02-15T03:17:21.483Z,27.65
2023-02-15T03:19:51.534Z,29.02
2023-02-15T03:22:54.417Z,30.10
2023-02-15T03:25:24.224Z,26.42
2023-02-15T03:28:08.444Z,23.33
2023-02-15T03:30:39.008Z,31.52
2023-02-15T03:33:08.364Z,28.02
2023-02-15T03:36:01.610Z,29.85
2023-02-15T03:39:00.923Z,26.38
2023-02-15T03:41:39.664Z,30.48
2023-02-15T03:44:28.654Z,29.60
2023-02-15T03:47:15.670Z,30.63
2023-02-15T03:50:38.799Z,27.70
2023-02-15T03:53:10.610Z,35.00
2023-02-15T03:55:37.792Z,31.00
2023-02-15T03:58:25.020Z,34.58
2023-02-15T04:01:46.170Z,33.90
2023-02-15T04:04:23.129Z,34.28
2023-02-15T04:06:51.596Z,32.28
2023-02-15T04:09:37.922Z,30.20
2023-02-15T04:12:05.256Z,31.20
2023-02-15T04:14:50.828Z,36.03
2023-02-15T04:17:17.986Z,28.88
2023-02-15T04:20:03.707Z,27.33
2023-02-15T04:22:49.002Z,33.72
2023-02-15T04:25:16.280Z,34.80
2023-02-15T04:27:48.358Z,31.55
2023-02-15T04:30:19.807Z,28.42
2023-02-15T04:32:47.099Z,26.52
2023-02-15T04:35:15.206Z,39.95
2023-02-15T04:37:44.201Z,28.92
2023-02-15T04:40:15.575Z,31.38
2023-02-15T04:42:54.112Z,31.35
2023-02-15T04:45:21.242Z,36.78
2023-02-15T04:47:48.501Z,35.00
2023-02-15T04:50:15.627Z,37.50
2023-02-15T04:52:42.545Z,32.58
2023-02-15T04:55:09.822Z,36.03
2023-02-15T04:57:36.912Z,32.00
2023-02-15T05:00:04.763Z,42.15
2023-02-15T05:02:31.714Z,35.50
2023-02-15T05:04:58.887Z,35.65
2023-02-15T05:07:25.916Z,34.60
2023-02-15T05:09:52.892Z,36.38
2023-02-15T05:12:19.890Z,34.15
2023-02-15T05:14:46.910Z,33.53
2023-02-15T05:17:13.986Z,31.40
2023-02-15T05:19:40.982Z,37.45
2023-02-15T05:22:07.965Z,39.58
2023-02-15T05:24:53.648Z,29.45
2023-02-15T05:27:38.916Z,30.27
2023-02-15T05:30:07.057Z,29.27
2023-02-15T05:32:34.314Z,35.45
2023-02-15T05:35:01.585Z,31.02
2023-02-15T05:37:28.853Z,31.80
2023-02-15T05:39:56.881Z,33.83
2023-02-15T05:42:24.816Z,33.42
2023-02-15T05:44:51.716Z,34.30
2023-02-15T05:47:18.703Z,37.60
2023-02-15T05:49:45.581Z,30.30
2023-02-15T05:52:13.152Z,32.72
2023-02-15T05:54:40.112Z,33.70
2023-02-15T05:57:07.119Z,29.38
2023-02-15T05:59:33.987Z,27.15
2023-02-15T06:02:01.026Z,34.40
2023-02-15T06:04:28.109Z,36.40
2023-02-15T06:06:55.005Z,35.85
2023-02-15T06:09:21.983Z,29.70
2023-02-15T06:11:48.880Z,34.17
2023-02-15T06:14:15.875Z,32.30
2023-02-15T06:16:42.772Z,27.23
2023-02-15T06:19:09.673Z,29.52
2023-02-15T06:21:36.729Z,30.85
2023-02-15T06:24:03.880Z,35.63
2023-02-15T06:26:30.908Z,30.00
2023-02-15T06:28:57.925Z,30.80
2023-02-15T06:31:24.986Z,28.40
2023-02-15T06:33:51.908Z,32.03
2023-02-15T06:36:18.905Z,34.30
2023-02-15T06:38:45.800Z,30.00
2023-02-15T06:41:12.685Z,33.33
2023-02-15T06:43:41.032Z,28.40
2023-02-15T06:46:08.373Z,34.00
2023-02-15T06:48:35.277Z,34.90
2023-02-15T06:51:02.300Z,27.50
2023-02-15T06:53:29.416Z,29.00
2023-02-15T06:56:07.664Z,31.70
2023-02-15T06:58:35.031Z,29.42
2023-02-15T07:01:01.957Z,31.63
2023-02-15T07:03:28.920Z,30.42
2023-02-15T07:06:01.595Z,29.75
2023-02-15T07:08:30.093Z,30.67
2023-02-15T07:11:17.616Z,27.52
2023-02-15T07:13:44.567Z,30.27
2023-02-15T07:16:11.927Z,28.10
2023-02-15T07:18:39.762Z,28.17
2023-02-15T07:21:10.424Z,30.70
2023-02-15T07:23:38.634Z,34.42
2023-02-15T07:26:07.072Z,29.98
2023-02-15T07:28:37.494Z,31.80
2023-02-15T07:31:06.026Z,33.97
2023-02-15T07:33:34.312Z,38.35
2023-02-15T07:36:06.096Z,27.50
2023-02-15T07:38:37.413Z,33.38
2023-02-15T07:41:10.933Z,35.85
2023-02-15T07:43:41.379Z,36.35
2023-02-15T07:46:15.603Z,33.28
2023-02-15T07:48:43.793Z,36.40
2023-02-15T07:51:12.420Z,40.80
2023-02-15T07:53:40.320Z,27.88
2023-02-15T07:56:13.123Z,33.85
2023-02-15T07:58:53.956Z,38.03
2023-02-15T08:01:24.028Z,34.45
2023-02-15T08:03:51.443Z,27.17
2023-02-15T08:06:18.749Z,29.27
2023-02-15T08:08:45.679Z,33.22
2023-02-15T08:11:26.755Z,32.33
2023-02-15T08:13:57.425Z,33.08
2023-02-15T08:16:42.146Z,30.10
2023-02-15T08:19:19.162Z,32.15
2023-02-15T08:21:55.532Z,32.95
2023-02-15T08:24:28.473Z,36.33
2023-02-15T08:26:56.187Z,37.97
2023-02-15T08:29:28.840Z,44.88
2023-02-15T08:32:02.939Z,38.67
2023-02-15T08:34:33.576Z,37.47
2023-02-15T08:37:00.639Z,39.35
2023-02-15T08:39:27.608Z,42.65
2023-02-15T08:41:54.618Z,36.58
2023-02-15T08:44:21.787Z,36.05
2023-02-15T08:46:50.201Z,39.08
2023-02-15T08:49:20.660Z,37.20
2023-02-15T08:51:49.423Z,34.40
2023-02-15T08:54:20.100Z,36.10
2023-02-15T08:56:47.561Z,33.53
2023-02-15T08:59:19.968Z,35.17
2023-02-15T09:01:48.867Z,36.92
2023-02-15T09:04:16.872Z,36.47
2023-02-15T09:06:48.331Z,35.15
2023-02-15T09:09:16.911Z,34.05
2023-02-15T09:11:46.472Z,36.78
2023-02-15T09:14:21.099Z,37.33
2023-02-15T09:16:52.657Z,38.83
2023-02-15T09:19:22.738Z,33.80
2023-02-15T09:21:49.739Z,40.40
2023-02-15T09:24:18.793Z,35.55
2023-02-15T09:26:49.106Z,38.13
2023-02-15T09:29:18.140Z,34.63
2023-02-15T09:31:49.678Z,38.88
2023-02-15T09:34:21.191Z,37.28
2023-02-15T09:36:48.891Z,38.67
2023-02-15T09:39:25.756Z,36.83
2023-02-15T09:42:40.594Z,35.33
2023-02-15T09:45:47.490Z,35.00
2023-02-15T09:48:41.352Z,34.55
2023-02-15T09:51:42.616Z,30.45
2023-02-15T09:54:58.931Z,35.80
2023-02-15T09:58:00.096Z,30.88
2023-02-15T10:00:51.239Z,31.83
2023-02-15T10:04:04.945Z,32.13
2023-02-15T10:06:57.816Z,27.38
2023-02-15T10:09:51.917Z,32.05
2023-02-15T10:12:44.376Z,33.45
2023-02-15T10:15:29.391Z,38.53
2023-02-15T10:18:32.151Z,34.95
2023-02-15T10:21:21.278Z,26.58
2023-02-15T10:24:06.029Z,31.05
2023-02-15T10:26:46.634Z,32.38
2023-02-15T10:29:42.649Z,49.50
2023-02-15T10:32:47.528Z,35.50
2023-02-15T10:35:58.232Z,31.08
2023-02-15T10:38:44.066Z,32.30
2023-02-15T10:41:37.781Z,29.98
2023-02-15T10:44:33.894Z,31.00
2023-02-15T10:47:14.320Z,32.47
2023-02-15T10:49:59.141Z,27.83
2023-02-15T10:52:55.557Z,40.22
2023-02-15T10:56:08.505Z,26.35
2023-02-15T10:58:58.616Z,35.45
2023-02-15T11:01:40.735Z,30.55
2023-02-15T11:04:42.032Z,26.10
2023-02-15T11:07:38.340Z,26.95
2023-02-15T11:10:26.354Z,32.08
2023-02-15T11:12:56.248Z,30.00
2023-02-15T11:16:02.289Z,30.60
2023-02-15T11:18:52.161Z,29.33
2023-02-15T11:21:27.480Z,30.65
2023-02-15T11:23:55.723Z,35.53
2023-02-15T11:26:29.459Z,30.23
2023-02-15T11:29:15.655Z,27.15
2023-02-15T11:32:03.829Z,30.42
2023-02-15T11:34:37.748Z,29.20
2023-02-15T11:37:19.763Z,33.28
2023-02-15T11:39:52.687Z,32.35
2023-02-15T11:42:28.649Z,34.38
2023-02-15T11:45:23.909Z,25.48
2023-02-15T11:47:54.085Z,28.98
2023-02-15T11:50:28.324Z,26.13
2023-02-15T11:53:04.421Z,35.88
2023-02-15T11:55:32.692Z,31.63
2023-02-15T11:58:17.506Z,31.02
2023-02-15T12:00:48.458Z,25.33
2023-02-15T12:03:30.866Z,29.80
2023-02-15T12:06:04.337Z,31.23
2023-02-15T12:08:50.442Z,31.85
2023-02-15T12:11:27.244Z,30.67
2023-02-15T12:14:18.494Z,28.00
2023-02-15T12:16:57.222Z,32.88
2023-02-15T12:19:41.632Z,33.13
2023-02-15T12:22:34.371Z,30.10
2023-02-15T12:25:30.743Z,30.30
2023-02-15T12:27:58.921Z,31.90
2023-02-15T12:30:36.553Z,40.72
2023-02-15T12:33:16.662Z,30.33
2023-02-15T12:36:08.339Z,34.67
2023-02-15T12:38:36.938Z,29.50
2023-02-15T12:41:28.849Z,31.05
2023-02-15T12:44:30.534Z,29.38
2023-02-15T12:47:16.161Z,32.47
2023-02-15T12:53:12.050Z,28.75
2023-02-15T12:55:45.334Z,32.67
2023-02-15T12:58:30.627Z,28.85
2023-02-15T13:01:18.872Z,38.88
2023-02-15T13:04:10.738Z,30.20
2023-02-15T13:06:53.405Z,34.42
2023-02-15T13:09:33.467Z,33.75
2023-02-15T13:12:27.800Z,31.80
2023-02-15T13:14:57.757Z,29.67
2023-02-15T13:17:46.784Z,32.28
2023-02-15T13:20:41.972Z,33.95
2023-02-15T13:23:28.538Z,32.35
2023-02-15T13:26:00.279Z,31.48
2023-02-15T13:29:00.245Z,29.13
2023-02-15T13:31:33.846Z,29.10
2023-02-15T13:34:20.910Z,31.00
2023-02-15T13:37:17.666Z,26.20
2023-02-15T13:40:22.458Z,30.27
2023-02-15T13:43:07.649Z,31.40
2023-02-15T13:46:06.840Z,29.73
2023-02-15T14:32:47.698Z,34.80
2023-02-15T14:35:19.006Z,34.35
2023-02-15T14:38:18.168Z,36.47
2023-02-15T14:44:52.391Z,36.50
2023-02-15T14:47:34.820Z,33.97
2023-02-15T14:51:15.064Z,32.72
2023-02-15T14:53:49.483Z,35.28
2023-02-15T14:56:27.803Z,36.33
2023-02-15T14:59:03.258Z,34.90
2023-02-15T15:01:38.772Z,36.83
2023-02-15T15:04:45.342Z,35.72
2023-02-15T15:07:34.146Z,38.30
2023-02-15T15:10:25.884Z,38.50
2023-02-15T15:12:56.441Z,54.40
2023-02-15T15:16:43.394Z,32.55
2023-02-15T15:19:52.032Z,40.05
2023-02-15T15:22:44.699Z,40.88
2023-02-15T15:42:16.426Z,32.38
2023-02-15T15:45:25.430Z,41.60
2023-02-15T15:51:54.155Z,41.67
2023-02-15T15:54:38.807Z,40.85
2023-02-15T16:00:35.128Z,52.08
2023-02-15T16:08:19.494Z,37.05
2023-02-15T16:12:55.310Z,41.60
2023-02-15T16:20:09.861Z,39.50
2023-02-15T16:22:51.580Z,37.65
2023-02-15T16:26:26.735Z,39.28
2023-02-15T16:28:57.338Z,37.70
2023-02-15T16:31:24.396Z,31.17
2023-02-15T16:33:57.270Z,37.13
2023-02-15T16:36:30.377Z,42.90
2023-02-15T16:38:58.348Z,41.35
2023-02-15T16:41:33.591Z,40.58
2023-02-15T16:44:14.633Z,43.50
2023-02-15T16:46:52.565Z,42.20
2023-02-15T16:49:57.313Z,41.40
2023-02-15T16:52:34.904Z,36.03
2023-02-15T16:55:20.767Z,35.30
2023-02-15T16:57:52.084Z,41.33
2023-02-15T17:00:24.432Z,38.75
2023-02-15T17:03:48.636Z,43.25
2023-02-15T17:10:00.005Z,39.08
2023-02-15T17:19:57.097Z,37.55
2023-02-15T17:22:27.982Z,31.92
2023-02-15T17:25:06.805Z,32.80
2023-02-15T17:28:20.979Z,39.35
2023-02-15T17:30:50.749Z,43.92
2023-02-15T17:33:37.983Z,41.25
2023-02-15T17:36:30.835Z,36.88
2023-02-15T17:38:58.732Z,40.50
2023-02-15T17:41:57.561Z,38.75
2023-02-15T17:44:32.931Z,42.00
2023-02-15T17:47:01.528Z,41.08
2023-02-15T17:49:34.741Z,42.20
2023-02-15T17:52:04.856Z,45.72
2023-02-15T17:55:17.821Z,47.58
2023-02-15T18:01:12.347Z,44.05
2023-02-15T18:04:13.619Z,42.47
2023-02-15T18:07:42.589Z,36.30
2023-02-15T18:10:38.778Z,40.97
2023-02-15T18:13:15.453Z,40.33
2023-02-15T18:15:51.108Z,43.65
2023-02-15T18:18:24.784Z,41.50
2023-02-15T18:20:52.226Z,46.42
2023-02-15T18:23:19.370Z,42.75
2023-02-15T18:25:48.972Z,42.30
2023-02-15T18:28:17.358Z,39.38
2023-02-15T18:30:45.043Z,43.67
2023-02-15T18:33:56.501Z,40.63
2023-02-15T18:36:28.618Z,42.30
2023-02-15T18:39:01.409Z,38.08
2023-02-15T18:41:31.059Z,38.08
2023-02-15T18:43:57.966Z,38.22
2023-02-15T18:46:25.319Z,46.30
2023-02-15T18:48:53.129Z,37.03
2023-02-15T18:51:23.536Z,38.38
2023-02-15T18:53:53.942Z,34.65
2023-02-15T18:56:26.317Z,40.65
2023-02-15T18:58:56.035Z,38.70
2023-02-15T19:01:24.127Z,41.97
2023-02-15T19:03:52.184Z,37.92
2023-02-15T19:57:54.603Z,51.08
2023-02-15T20:07:27.113Z,45.67
2023-02-15T20:16:33.330Z,42.15
2023-02-15T20:19:01.228Z,44.90
2023-02-15T20:27:56.792Z,44.63
2023-02-15T20:30:31.300Z,49.92
2023-02-15T20:33:05.190Z,52.25
2023-02-15T20:36:00.528Z,45.13
2023-02-15T20:41:37.718Z,48.25
2023-02-15T20:44:29.764Z,45.70
2023-02-15T20:47:00.417Z,44.85
2023-02-15T20:49:28.757Z,41.88
2023-02-15T20:51:58.903Z,49.13
2023-02-15T20:57:22.488Z,37.10
2023-02-15T20:59:49.980Z,47.45
2023-02-15T21:02:23.942Z,42.50
2023-02-15T21:04:50.942Z,47.58
2023-02-15T21:07:21.675Z,40.88
2023-02-15T21:09:48.971Z,33.72
2023-02-15T21:12:18.974Z,42.25
2023-02-15T21:14:49.031Z,44.15
2023-02-15T21:17:18.777Z,46.05
2023-02-15T21:19:48.905Z,46.58
2023-02-15T21:22:17.299Z,38.60
2023-02-15T21:31:23.268Z,42.92
2023-02-15T21:33:55.442Z,40.25
2023-02-15T21:36:26.171Z,44.50
2023-02-15T21:39:00.407Z,42.40
2023-02-15T21:41:47.876Z,44.80
2023-02-15T21:44:38.533Z,44.90
2023-02-15T21:47:25.506Z,41.53
2023-02-15T21:49:53.293Z,43.90
2023-02-15T21:52:23.991Z,42.15
2023-02-15T21:54:51.361Z,39.75
2023-02-15T21:57:22.030Z,40.75
2023-02-15T21:59:49.515Z,44.13
2023-02-15T22:02:29.526Z,42.00
2023-02-15T22:04:59.306Z,44.30
2023-02-15T22:07:26.786Z,47.13
2023-02-15T22:09:55.615Z,47.30
2023-02-15T22:12:23.591Z,39.58
2023-02-15T22:14:54.058Z,40.65
2023-02-15T22:17:29.250Z,42.63
2023-02-15T22:19:58.094Z,42.90
2023-02-15T22:22:30.309Z,38.90
2023-02-15T22:25:01.485Z,41.35
2023-02-15T22:27:39.387Z,39.20
2023-02-15T22:30:40.305Z,49.10
2023-02-15T22:33:32.427Z,42.17
2023-02-15T22:42:14.533Z,44.53
2023-02-15T22:45:27.474Z,43.45
2023-02-15T22:48:10.511Z,38.70
2023-02-15T22:50:50.312Z,42.03
2023-02-15T22:53:23.442Z,45.47
2023-02-15T22:56:09.799Z,46.65
2023-02-15T22:58:40.821Z,42.05
2023-02-15T23:01:27.518Z,47.40
2023-02-15T23:03:59.152Z,42.90
2023-02-15T23:06:31.571Z,48.42
2023-02-15T23:09:08.349Z,45.00
2023-02-15T23:11:38.324Z,48.05
2023-02-15T23:17:08.901Z,47.78
2023-02-15T23:20:07.624Z,44.88
2023-02-15T23:29:17.998Z,47.05
2023-02-15T23:31:52.363Z,48.38
2023-02-15T23:34:35.973Z,50.72
2023-02-15T23:37:31.563Z,50.88
2023-02-15T23:40:17.302Z,42.78
2023-02-15T23:45:45.876Z,50.10
2023-02-15T23:48:40.262Z,48.13
2023-02-15T23:51:12.090Z,48.63
2023-02-15T23:56:28.159Z,50.60
2023-02-15T23:59:45.103Z,48.40
